createdAt,value
2019-04-03T00:00:27.589Z,97541.77
2019-04-03T00:02:56.664Z,97532.28
2019-04-03T00:05:25.821Z,97540.11
2019-04-03T00:07:54.909Z,97526.61
2019-04-03T00:10:24.333Z,97531.44
2019-04-03T00:12:53.405Z,97531.94
2019-04-03T00:15:22.508Z,97527.47
2019-04-03T00:17:51.593Z,97524.12
2019-04-03T00:20:20.711Z,97521.97
2019-04-03T00:22:51.852Z,97521.28
2019-04-03T00:25:22.395Z,97525.44
2019-04-03T00:27:52.473Z,97532.78
2019-04-03T00:30:22.936Z,97528.62
2019-04-03T00:32:53.548Z,97529.95
2019-04-03T00:35:23.519Z,97528.60
2019-04-03T00:37:53.824Z,97526.27
2019-04-03T00:40:24.732Z,97524.95
2019-04-03T00:42:54.569Z,97516.28
2019-04-03T00:45:24.513Z,97516.12
2019-04-03T00:47:55.792Z,97519.78
2019-04-03T00:50:26.938Z,97518.09
2019-04-03T00:52:57.499Z,97517.27
2019-04-03T00:55:27.412Z,97523.93
2019-04-03T00:57:57.153Z,97514.75
2019-04-03T01:00:26.920Z,97508.89
2019-04-03T01:02:58.252Z,97507.21
2019-04-03T01:05:28.709Z,97497.89
2019-04-03T01:07:59.509Z,97501.87
2019-04-03T01:10:29.803Z,97507.54
2019-04-03T01:13:01.373Z,97506.73
2019-04-03T01:15:31.583Z,97502.22
2019-04-03T01:18:01.348Z,97492.36
2019-04-03T01:20:30.389Z,97486.52
2019-04-03T01:22:59.472Z,97495.39
2019-04-03T01:25:28.530Z,97484.22
2019-04-03T01:27:57.659Z,97489.20
2019-04-03T01:30:26.698Z,97480.53
2019-04-03T01:32:55.702Z,97473.36
2019-04-03T01:35:24.841Z,97474.52
2019-04-03T01:37:53.829Z,97471.20
2019-04-03T01:40:22.899Z,97462.52
2019-04-03T01:42:52.780Z,97465.47
2019-04-03T01:45:25.258Z,97457.36
2019-04-03T01:47:53.551Z,97456.02
2019-04-03T01:50:22.997Z,97452.84
2019-04-03T01:52:52.195Z,97454.02
2019-04-03T01:55:21.349Z,97450.02
2019-04-03T01:57:50.609Z,97447.20
2019-04-03T02:00:19.797Z,97441.05
2019-04-03T02:02:48.994Z,97439.52
2019-04-03T02:05:18.062Z,97439.67
2019-04-03T02:07:47.327Z,97432.50
2019-04-03T02:10:18.843Z,97425.86
2019-04-03T02:12:50.399Z,97427.50
2019-04-03T02:15:21.231Z,97422.69
2019-04-03T02:17:49.502Z,97418.47
2019-04-03T02:20:18.988Z,97416.52
2019-04-03T02:22:48.009Z,97418.90
2019-04-03T02:25:17.068Z,97416.74
2019-04-03T02:27:46.166Z,97418.30
2019-04-03T02:30:15.671Z,97421.12
2019-04-03T02:32:44.749Z,97420.31
2019-04-03T02:35:14.237Z,97429.33
2019-04-03T02:37:43.333Z,97413.34
2019-04-03T02:40:12.571Z,97410.31
2019-04-03T02:42:42.534Z,97406.84
2019-04-03T02:45:12.018Z,97395.88
2019-04-03T02:47:41.387Z,97394.19
2019-04-03T02:50:13.907Z,97395.52
2019-04-03T02:52:41.689Z,97396.84
2019-04-03T02:55:10.802Z,97401.66
2019-04-03T02:57:39.937Z,97405.87
2019-04-03T03:00:10.140Z,97399.39
2019-04-03T03:02:39.219Z,97406.91
2019-04-03T03:05:08.431Z,97396.61
2019-04-03T03:07:37.567Z,97404.11
2019-04-03T03:10:08.228Z,97398.66
2019-04-03T03:12:39.294Z,97401.03
2019-04-03T03:15:11.493Z,97401.23
2019-04-03T03:17:39.930Z,97407.72
2019-04-03T03:20:10.438Z,97402.20
2019-04-03T03:22:41.159Z,97400.22
2019-04-03T03:25:10.400Z,97397.55
2019-04-03T03:27:41.909Z,97398.69
2019-04-03T03:30:32.722Z,97400.69
2019-04-03T03:32:43.276Z,97397.03
2019-04-03T03:35:20.102Z,97394.06
2019-04-03T03:37:46.148Z,97396.89
2019-04-03T03:40:16.558Z,97390.39
2019-04-03T03:42:47.006Z,97383.41
2019-04-03T03:45:19.163Z,97374.40
2019-04-03T03:47:50.098Z,97372.73
2019-04-03T03:50:25.660Z,97374.53
2019-04-03T03:52:56.191Z,97367.70
2019-04-03T03:55:26.319Z,97368.73
2019-04-03T03:57:56.304Z,97365.73
2019-04-03T04:00:25.679Z,97363.42
2019-04-03T04:02:55.306Z,97363.21
2019-04-03T04:05:24.982Z,97366.03
2019-04-03T04:07:55.191Z,97359.48
2019-04-03T04:10:27.754Z,97366.94
2019-04-03T04:12:57.731Z,97358.94
2019-04-03T04:15:30.221Z,97363.22
2019-04-03T04:17:58.216Z,97359.30
2019-04-03T04:20:28.001Z,97358.45
2019-04-03T04:22:57.411Z,97359.28
2019-04-03T04:25:28.098Z,97357.80
2019-04-03T04:27:57.959Z,97355.63
2019-04-03T04:30:27.066Z,97353.87
2019-04-03T04:32:56.189Z,97351.92
2019-04-03T04:35:25.291Z,97360.45
2019-04-03T04:37:55.992Z,97373.77
2019-04-03T04:40:25.263Z,97369.91
2019-04-03T04:42:54.564Z,97373.39
2019-04-03T04:45:23.647Z,97369.89
2019-04-03T04:47:52.668Z,97369.06
2019-04-03T04:50:25.742Z,97374.38
2019-04-03T04:52:54.997Z,97367.36
2019-04-03T04:55:24.085Z,97367.84
2019-04-03T04:57:53.506Z,97374.66
2019-04-03T05:00:22.684Z,97373.50
2019-04-03T05:02:51.775Z,97372.02
2019-04-03T05:05:20.869Z,97370.31
2019-04-03T05:07:49.942Z,97372.80
2019-04-03T05:10:18.948Z,97375.19
2019-04-03T05:12:48.211Z,97379.16
2019-04-03T05:15:19.500Z,97385.42
2019-04-03T05:21:16.519Z,97387.67
2019-04-03T05:23:45.468Z,97395.59
2019-04-03T05:26:14.274Z,97396.56
2019-04-03T05:28:54.255Z,97396.26
2019-04-03T05:31:13.533Z,97396.06
2019-04-03T05:33:42.491Z,97396.55
2019-04-03T05:36:11.448Z,97401.06
2019-04-03T05:38:40.181Z,97406.25
2019-04-03T05:41:08.946Z,97401.36
2019-04-03T05:43:37.809Z,97403.25
2019-04-03T05:46:07.083Z,97405.28
2019-04-03T05:48:36.480Z,97405.27
2019-04-03T05:51:05.429Z,97406.45
2019-04-03T05:53:36.686Z,97415.45
2019-04-03T05:56:05.206Z,97419.00
2019-04-03T05:58:33.884Z,97419.69
2019-04-03T06:01:06.231Z,97422.95
2019-04-03T06:03:42.179Z,97425.60
2019-04-03T06:06:03.761Z,97429.11
2019-04-03T06:08:34.262Z,97430.73
2019-04-03T06:11:07.952Z,97427.90
2019-04-03T06:13:37.030Z,97430.08
2019-04-03T06:16:07.037Z,97433.59
2019-04-03T06:18:35.748Z,97436.77
2019-04-03T06:21:04.980Z,97441.27
2019-04-03T06:23:33.896Z,97441.30
2019-04-03T06:26:03.075Z,97435.97
2019-04-03T06:28:32.382Z,97436.64
2019-04-03T06:31:01.372Z,97433.33
2019-04-03T06:33:31.699Z,97435.51
2019-04-03T06:36:00.831Z,97435.98
2019-04-03T06:38:30.458Z,97443.67
2019-04-03T06:40:59.803Z,97439.50
2019-04-03T06:43:30.169Z,97438.67
2019-04-03T06:45:59.932Z,97432.67
2019-04-03T06:48:28.921Z,97428.32
2019-04-03T06:50:57.663Z,97425.84
2019-04-03T06:53:28.357Z,97430.18
2019-04-03T06:55:57.078Z,97425.98
2019-04-03T06:58:32.962Z,97426.02
2019-04-03T07:00:56.480Z,97427.67
2019-04-03T07:03:25.306Z,97427.02
2019-04-03T07:05:54.329Z,97433.02
2019-04-03T07:08:33.033Z,97429.52
2019-04-03T07:10:55.497Z,97426.02
2019-04-03T07:13:24.705Z,97427.34
2019-04-03T07:15:55.858Z,97429.67
2019-04-03T07:18:24.419Z,97429.00
2019-04-03T07:20:53.347Z,97432.02
2019-04-03T07:23:22.096Z,97425.99
2019-04-03T07:25:51.063Z,97431.81
2019-04-03T07:28:19.860Z,97441.97
2019-04-03T07:30:48.660Z,97442.98
2019-04-03T07:33:17.811Z,97437.29
2019-04-03T07:35:47.055Z,97439.63
2019-04-03T07:38:15.878Z,97443.95
2019-04-03T07:40:44.741Z,97437.95
2019-04-03T07:43:13.888Z,97446.45
2019-04-03T07:45:43.927Z,97441.13
2019-04-03T07:48:12.913Z,97434.94
2019-04-03T07:50:42.309Z,97441.58
2019-04-03T07:53:11.091Z,97441.95
2019-04-03T07:55:39.987Z,97440.61
2019-04-03T07:58:08.795Z,97438.91
2019-04-03T08:00:38.603Z,97441.41
2019-04-03T08:03:08.202Z,97437.58
2019-04-03T08:05:37.002Z,97441.34
2019-04-03T08:08:05.833Z,97441.34
2019-04-03T08:10:37.271Z,97441.02
2019-04-03T08:13:06.611Z,97445.33
2019-04-03T08:15:36.347Z,97437.44
2019-04-03T08:18:05.270Z,97448.14
2019-04-03T08:20:34.079Z,97442.08
2019-04-03T08:23:04.693Z,97444.39
2019-04-03T08:25:33.459Z,97451.36
2019-04-03T08:28:02.284Z,97445.99
2019-04-03T08:30:30.994Z,97445.63
2019-04-03T08:32:59.743Z,97444.56
2019-04-03T08:35:28.661Z,97437.03
2019-04-03T08:37:58.235Z,97439.14
2019-04-03T08:40:27.203Z,97429.77
2019-04-03T08:42:59.407Z,97424.98
2019-04-03T08:45:26.455Z,97430.12
2019-04-03T08:47:55.210Z,97429.61
2019-04-03T08:50:24.047Z,97427.74
2019-04-03T08:52:52.862Z,97425.61
2019-04-03T08:55:21.690Z,97421.64
2019-04-03T08:57:52.524Z,97424.17
2019-04-03T09:00:21.768Z,97423.09
2019-04-03T09:02:50.856Z,97421.27
2019-04-03T09:05:20.251Z,97418.86
2019-04-03T09:07:49.574Z,97413.25
2019-04-03T09:10:19.048Z,97417.39
2019-04-03T09:12:47.789Z,97410.95
2019-04-03T09:15:17.139Z,97406.56
2019-04-03T09:17:45.904Z,97400.94
2019-04-03T09:20:15.310Z,97399.27
2019-04-03T09:22:44.055Z,97395.39
2019-04-03T09:25:13.852Z,97393.91
2019-04-03T09:27:42.739Z,97405.77
2019-04-03T09:30:15.900Z,97403.62
2019-04-03T09:32:43.191Z,97399.75
2019-04-03T09:35:12.491Z,97407.41
2019-04-03T09:37:41.446Z,97403.66
2019-04-03T09:40:10.997Z,97413.38
2019-04-03T09:42:39.812Z,97403.51
2019-04-03T09:45:09.293Z,97405.91
2019-04-03T09:47:38.184Z,97396.70
2019-04-03T09:50:08.059Z,97389.03
2019-04-03T09:52:42.316Z,97389.45
2019-04-03T09:55:07.944Z,97378.48
2019-04-03T09:57:36.742Z,97374.28
2019-04-03T10:00:10.593Z,97367.78
2019-04-03T10:02:38.922Z,97368.77
2019-04-03T10:05:08.593Z,97367.31
2019-04-03T10:07:37.591Z,97370.80
2019-04-03T10:10:07.458Z,97369.09
2019-04-03T10:12:36.297Z,97368.37
2019-04-03T10:15:06.043Z,97367.00
2019-04-03T10:17:36.641Z,97376.94
2019-04-03T10:20:06.746Z,97369.80
2019-04-03T10:22:35.507Z,97362.59
2019-04-03T10:25:06.282Z,97361.64
2019-04-03T10:27:35.010Z,97358.27
2019-04-03T10:30:05.239Z,97361.10
2019-04-03T10:32:33.941Z,97349.53
2019-04-03T10:35:19.618Z,97347.61
2019-04-03T10:37:53.345Z,97344.67
2019-04-03T10:40:48.732Z,97339.05
2019-04-03T10:43:27.825Z,97343.88
2019-04-03T10:46:02.981Z,97333.68
2019-04-03T10:48:34.183Z,97329.52
2019-04-03T10:51:07.080Z,97326.28
2019-04-03T10:53:36.752Z,97325.17
2019-04-03T10:56:06.535Z,97319.72
2019-04-03T10:58:37.893Z,97324.16
2019-04-03T11:01:06.094Z,97324.22
2019-04-03T11:03:34.976Z,97323.03
2019-04-03T11:06:04.214Z,97324.38
2019-04-03T11:08:33.165Z,97322.52
2019-04-03T11:11:04.500Z,97328.39
2019-04-03T11:13:34.309Z,97326.98
2019-04-03T11:16:03.593Z,97329.55
2019-04-03T11:18:32.642Z,97326.31
2019-04-03T11:21:02.185Z,97325.72
2019-04-03T11:23:40.243Z,97327.97
2019-04-03T11:26:01.991Z,97314.28
2019-04-03T11:28:30.905Z,97320.74
2019-04-03T11:31:06.199Z,97329.05
2019-04-03T11:33:35.381Z,97318.78
2019-04-03T11:39:12.344Z,97318.64
2019-04-03T11:41:35.667Z,97315.52
2019-04-03T11:44:04.663Z,97313.09
2019-04-03T11:46:33.813Z,97313.48
2019-04-03T11:49:02.715Z,97308.05
2019-04-03T11:51:33.763Z,97315.84
2019-04-03T11:54:02.353Z,97312.94
2019-04-03T11:56:31.274Z,97316.28
2019-04-03T11:59:01.289Z,97305.95
2019-04-03T12:01:30.164Z,97308.88
2019-04-03T12:03:59.419Z,97311.73
2019-04-03T12:06:28.452Z,97315.41
2019-04-03T12:08:59.391Z,97314.42
2019-04-03T12:12:17.349Z,97309.47
2019-04-03T12:18:39.892Z,97302.96
2019-04-03T12:21:18.098Z,97303.66
2019-04-03T12:24:12.704Z,97306.41
2019-04-03T12:26:36.715Z,97302.56
2019-04-03T12:29:07.473Z,97297.11
2019-04-03T12:31:36.221Z,97281.97
2019-04-03T12:34:06.708Z,97279.34
2019-04-03T12:36:36.128Z,97279.44
2019-04-03T12:39:11.448Z,97271.85
2019-04-03T12:41:42.860Z,97268.92
2019-04-03T12:44:11.244Z,97263.61
2019-04-03T12:46:41.603Z,97269.98
2019-04-03T12:49:10.697Z,97272.98
2019-04-03T12:51:39.407Z,97258.84
2019-04-03T12:54:08.405Z,97262.64
2019-04-03T12:56:37.274Z,97262.52
2019-04-03T12:59:12.340Z,97270.56
2019-04-03T13:02:31.088Z,97262.55
2019-04-03T13:05:01.386Z,97263.36
2019-04-03T13:07:30.624Z,97257.16
2019-04-03T13:09:59.419Z,97250.47
2019-04-03T13:12:28.358Z,97250.66
2019-04-03T13:14:57.307Z,97247.97
2019-04-03T13:17:26.097Z,97238.80
2019-04-03T13:19:55.197Z,97234.91
2019-04-03T13:22:24.351Z,97232.34
2019-04-03T13:24:59.651Z,97228.89
2019-04-03T13:27:30.816Z,97220.44
2019-04-03T13:29:59.136Z,97216.11
2019-04-03T13:32:28.076Z,97221.23
2019-04-03T13:34:57.165Z,97220.56
2019-04-03T13:37:26.085Z,97222.66
2019-04-03T13:39:55.135Z,97225.77
2019-04-03T13:42:24.394Z,97221.98
2019-04-03T13:44:53.167Z,97224.84
2019-04-03T13:47:22.079Z,97220.47
2019-04-03T13:49:51.196Z,97221.30
2019-04-03T13:52:20.124Z,97223.92
2019-04-03T13:54:49.165Z,97215.91
2019-04-03T13:57:18.351Z,97214.77
2019-04-03T13:59:47.141Z,97212.72
2019-04-03T14:02:16.680Z,97209.56
2019-04-03T14:04:48.447Z,97207.74
2019-04-03T14:07:16.558Z,97204.20
2019-04-03T14:09:50.214Z,97201.88
2019-04-03T14:12:17.073Z,97197.69
2019-04-03T14:14:48.996Z,97196.61
2019-04-03T14:17:18.705Z,97192.45
2019-04-03T14:19:52.839Z,97187.61
2019-04-03T14:22:47.574Z,97179.90
2019-04-03T14:25:45.548Z,97176.66
2019-04-03T14:39:17.821Z,97164.48
2019-04-03T14:43:50.861Z,97150.63
2019-04-03T14:46:41.412Z,97149.99
2019-04-03T14:53:22.497Z,97152.38
2019-04-03T14:56:09.413Z,97133.48
2019-04-03T14:58:39.261Z,97120.98
2019-04-03T15:01:08.632Z,97123.17
2019-04-03T15:03:37.455Z,97131.81
2019-04-03T15:12:55.667Z,97123.87
2019-04-03T15:15:26.398Z,97121.39
2019-04-03T15:17:55.098Z,97116.88
2019-04-03T15:20:33.475Z,97117.04
2019-04-03T15:23:04.802Z,97125.83
2019-04-03T15:25:36.502Z,97116.92
2019-04-03T15:28:07.230Z,97114.08
2019-04-03T15:30:36.282Z,97118.50
2019-04-03T15:33:07.799Z,97120.39
2019-04-03T15:38:48.259Z,97104.22
2019-04-03T15:41:17.717Z,97107.57
2019-04-03T15:43:51.503Z,97100.08
2019-04-03T15:46:20.968Z,97091.45
2019-04-03T15:48:51.001Z,97087.32
2019-04-03T15:51:44.230Z,97078.22
2019-04-03T15:54:10.378Z,97076.02
2019-04-03T15:56:42.177Z,97079.84
2019-04-03T15:59:14.378Z,97082.12
2019-04-03T16:01:45.025Z,97085.22
2019-04-03T16:04:13.935Z,97075.42
2019-04-03T16:06:43.031Z,97085.33
2019-04-03T16:09:17.206Z,97077.27
2019-04-03T16:11:42.635Z,97076.14
2019-04-03T16:14:11.519Z,97071.91
2019-04-03T16:16:41.759Z,97071.27
2019-04-03T16:19:11.951Z,97072.61
2019-04-03T16:21:41.466Z,97071.67
2019-04-03T16:24:13.142Z,97067.66
2019-04-03T16:26:40.840Z,97063.30
2019-04-03T16:29:09.712Z,97062.38
2019-04-03T16:31:38.582Z,97059.72
2019-04-03T16:34:10.666Z,97056.17
2019-04-03T16:36:38.515Z,97066.91
2019-04-03T16:39:09.171Z,97069.70
2019-04-03T16:41:38.824Z,97070.53
2019-04-03T16:44:07.649Z,97067.74
2019-04-03T16:46:36.376Z,97057.70
2019-04-03T16:49:07.031Z,97063.95
2019-04-03T16:51:36.138Z,97063.03
2019-04-03T16:54:05.536Z,97055.80
2019-04-03T16:56:38.633Z,97056.22
2019-04-03T16:59:08.630Z,97051.53
2019-04-03T17:01:37.466Z,97045.55
2019-04-03T17:04:08.826Z,97044.03
2019-04-03T17:06:36.683Z,97042.77
2019-04-03T17:09:12.666Z,97033.19
2019-04-03T17:11:44.921Z,97027.92
2019-04-03T17:14:12.101Z,97028.17
2019-04-03T17:16:41.386Z,97038.17
2019-04-03T17:19:10.278Z,97030.41
2019-04-03T17:21:39.578Z,97038.78
2019-04-03T17:24:40.799Z,97034.25
2019-04-03T17:27:01.996Z,97028.73
2019-04-03T17:29:34.156Z,97027.59
2019-04-03T17:32:03.396Z,97030.59
2019-04-03T17:34:37.095Z,97019.64
2019-04-03T17:37:06.391Z,97008.40
2019-04-03T17:39:35.727Z,97001.31
2019-04-03T17:42:05.020Z,96995.34
2019-04-03T17:44:33.878Z,96989.50
2019-04-03T17:47:02.743Z,96996.80
2019-04-03T17:49:31.505Z,96994.62
2019-04-03T17:52:06.737Z,96984.45
2019-04-03T17:54:38.505Z,96983.81
2019-04-03T17:57:21.080Z,96976.12
2019-04-03T17:59:56.755Z,96969.40
2019-04-03T18:02:31.609Z,96961.88
2019-04-03T18:05:00.436Z,96957.20
2019-04-03T18:07:32.813Z,96957.89
2019-04-03T18:10:12.941Z,96951.85
2019-04-03T18:13:04.538Z,96946.53
2019-04-03T18:15:49.176Z,96942.20
2019-04-03T18:21:33.635Z,96948.76
2019-04-03T18:24:25.102Z,96942.03
2019-04-03T18:26:58.803Z,96940.64
2019-04-03T18:29:27.655Z,96940.72
2019-04-03T18:32:02.382Z,96947.75
2019-04-03T18:34:51.163Z,96947.04
2019-04-03T18:37:19.868Z,96948.70
2019-04-03T18:42:28.968Z,96931.66
2019-04-03T18:45:02.392Z,96926.95
2019-04-03T18:48:01.579Z,96930.28
2019-04-03T18:50:38.792Z,96927.58
2019-04-03T18:53:09.770Z,96935.42
2019-04-03T18:55:38.556Z,96924.41
2019-04-03T18:58:23.812Z,96923.42
2019-04-03T19:01:03.485Z,96929.42
2019-04-03T19:03:41.043Z,96927.08
2019-04-03T19:06:13.445Z,96932.04
2019-04-03T19:08:49.713Z,96935.26
2019-04-03T19:11:17.420Z,96936.66
2019-04-03T19:13:49.712Z,96942.83
2019-04-03T19:16:28.938Z,96936.41
2019-04-03T19:18:49.227Z,96923.84
2019-04-03T19:21:33.928Z,96911.73
2019-04-03T19:24:02.706Z,96905.42
2019-04-03T19:26:31.789Z,96893.20
2019-04-03T19:34:59.099Z,96871.38
2019-04-03T19:38:13.267Z,96869.94
2019-04-03T19:40:42.906Z,96857.42
2019-04-03T19:43:24.370Z,96855.00
2019-04-03T19:46:11.261Z,96855.89
2019-04-03T19:48:40.117Z,96849.11
2019-04-03T19:51:09.154Z,96859.50
2019-04-03T19:54:12.138Z,96866.08
2019-04-03T19:57:01.319Z,96876.51
2019-04-03T19:59:40.809Z,96881.20
2019-04-03T20:02:14.485Z,96878.02
2019-04-03T20:04:45.885Z,96900.48
2019-04-03T20:07:15.745Z,96964.50
2019-04-03T20:09:44.536Z,97029.37
2019-04-03T20:12:18.923Z,97037.88
2019-04-03T20:14:58.136Z,97095.27
2019-04-03T20:17:18.861Z,97132.73
2019-04-03T20:19:47.601Z,97226.05
2019-04-03T20:22:16.299Z,97226.05
2019-04-03T20:24:45.299Z,97223.61
2019-04-03T20:27:14.920Z,97195.75
2019-04-03T20:29:44.487Z,97162.58
2019-04-03T20:32:13.259Z,97156.73
2019-04-03T20:34:44.405Z,97166.22
2019-04-03T20:37:12.700Z,97175.83
2019-04-03T20:39:41.531Z,97172.47
2019-04-03T20:42:10.560Z,97198.15
2019-04-03T20:44:39.348Z,97202.95
2019-04-03T20:47:08.136Z,97209.77
2019-04-03T20:49:36.813Z,97203.37
2019-04-03T20:52:05.649Z,97200.54
2019-04-03T20:54:34.370Z,97201.36
2019-04-03T20:57:03.182Z,97171.94
2019-04-03T20:59:31.943Z,97150.78
2019-04-03T21:02:00.806Z,97168.63
2019-04-03T21:04:29.489Z,97165.72
2019-04-03T21:06:58.198Z,97162.14
2019-04-03T21:09:29.685Z,97157.23
2019-04-03T21:11:57.458Z,97150.90
2019-04-03T21:14:26.191Z,97152.02
2019-04-03T21:16:56.149Z,97157.98
2019-04-03T21:19:25.061Z,97167.05
2019-04-03T21:21:53.771Z,97155.86
2019-04-03T21:24:22.516Z,97153.52
2019-04-03T21:26:51.295Z,97128.05
2019-04-03T21:29:20.047Z,97133.00
2019-04-03T21:31:48.891Z,97128.06
2019-04-03T21:34:17.595Z,97133.03
2019-04-03T21:36:46.331Z,97137.66
2019-04-03T21:39:15.083Z,97155.55
2019-04-03T21:41:44.066Z,97164.14
2019-04-03T21:44:12.796Z,97146.61
2019-04-03T21:46:41.527Z,97153.58
2019-04-03T21:49:10.314Z,97157.39
2019-04-03T21:51:39.053Z,97155.19
2019-04-03T21:54:07.774Z,97147.76
2019-04-03T21:56:36.557Z,97129.57
2019-04-03T21:59:05.588Z,97113.33
2019-04-03T22:01:36.126Z,97100.06
2019-04-03T22:04:05.096Z,97105.52
2019-04-03T22:06:33.841Z,97104.55
2019-04-03T22:09:03.025Z,97108.39
2019-04-03T22:11:34.681Z,97100.08
2019-04-03T22:14:02.194Z,97106.01
2019-04-03T22:16:30.921Z,97103.13
2019-04-03T22:18:59.852Z,97099.97
2019-04-03T22:21:28.629Z,97106.10
2019-04-03T22:23:57.351Z,97102.80
2019-04-03T22:26:26.287Z,97097.77
2019-04-03T22:28:55.035Z,97085.23
2019-04-03T22:31:25.960Z,97086.45
2019-04-03T22:33:54.670Z,97092.44
2019-04-03T22:36:23.461Z,97089.77
2019-04-03T22:38:52.172Z,97078.41
2019-04-03T22:41:20.888Z,97094.31
2019-04-03T22:43:49.601Z,97103.52
2019-04-03T22:46:21.770Z,97102.27
2019-04-03T22:48:48.849Z,97105.28
2019-04-03T22:51:17.566Z,97097.44
2019-04-03T22:53:46.285Z,97084.51
2019-04-03T22:56:16.940Z,97095.57
2019-04-03T22:58:45.470Z,97113.30
2019-04-03T23:01:14.352Z,97116.48
2019-04-03T23:03:43.368Z,97110.59
2019-04-03T23:06:12.209Z,97100.26
2019-04-03T23:08:41.039Z,97096.78
2019-04-03T23:11:09.912Z,97092.91
2019-04-03T23:13:38.684Z,97096.98
2019-04-03T23:16:07.414Z,97089.14
2019-04-03T23:18:36.157Z,97090.59
2019-04-03T23:21:04.951Z,97082.79
2019-04-03T23:23:33.714Z,97083.73
2019-04-03T23:26:02.478Z,97078.49
2019-04-03T23:28:33.610Z,97088.69
2019-04-03T23:31:01.838Z,97098.97
2019-04-03T23:33:31.072Z,97102.98
2019-04-03T23:35:59.814Z,97110.09
2019-04-03T23:38:28.571Z,97110.92
2019-04-03T23:40:57.305Z,97117.91
2019-04-03T23:43:26.065Z,97118.29
2019-04-03T23:45:54.864Z,97116.81
2019-04-03T23:48:23.615Z,97111.78
2019-04-03T23:50:53.119Z,97110.05
2019-04-03T23:53:22.025Z,97110.84
2019-04-03T23:55:50.914Z,97116.52
2019-04-03T23:58:19.668Z,97104.41
